createdAt,value
2024-05-09T00:01:31.666Z,99.90
2024-05-09T00:04:02.100Z,99.90
2024-05-09T00:06:32.222Z,99.90
2024-05-09T00:09:05.452Z,99.90
2024-05-09T00:11:35.949Z,99.90
2024-05-09T00:14:06.192Z,99.90
2024-05-09T00:16:36.399Z,99.90
2024-05-09T00:19:06.853Z,99.90
2024-05-09T00:21:37.052Z,99.90
2024-05-09T00:24:09.866Z,99.90
2024-05-09T00:26:39.998Z,99.90
2024-05-09T00:29:10.171Z,99.90
2024-05-09T00:31:40.239Z,99.90
2024-05-09T00:34:10.501Z,99.90
2024-05-09T00:36:40.832Z,99.90
2024-05-09T00:39:13.698Z,99.90
2024-05-09T00:41:44.089Z,99.90
2024-05-09T00:44:14.332Z,99.90
2024-05-09T00:46:44.859Z,99.90
2024-05-09T00:49:15.828Z,99.90
2024-05-09T00:51:46.648Z,99.90
2024-05-09T00:54:20.113Z,99.90
2024-05-09T00:56:52.409Z,99.90
2024-05-09T00:59:23.886Z,99.90
2024-05-09T01:01:54.461Z,99.90
2024-05-09T01:09:06.307Z,99.90
2024-05-09T01:11:41.470Z,99.90
2024-05-09T01:15:27.376Z,99.90
2024-05-09T01:18:26.876Z,99.90
2024-05-09T01:21:03.382Z,99.90
2024-05-09T01:24:49.079Z,99.90
2024-05-09T01:27:22.749Z,99.90
2024-05-09T01:34:01.349Z,99.90
2024-05-09T01:36:33.792Z,99.90
2024-05-09T01:39:51.267Z,99.90
2024-05-09T01:53:40.138Z,99.90
2024-05-09T02:07:10.579Z,99.90
2024-05-09T02:13:25.419Z,99.90
2024-05-09T02:17:10.952Z,99.90
2024-05-09T02:20:37.322Z,99.90
2024-05-09T02:23:11.404Z,99.90
2024-05-09T02:30:26.193Z,99.90
2024-05-09T02:48:00.457Z,99.90
2024-05-09T02:50:42.903Z,99.90
2024-05-09T02:58:18.452Z,99.90
2024-05-09T03:00:50.135Z,99.90
2024-05-09T03:07:28.547Z,99.90
2024-05-09T03:09:56.891Z,99.90
2024-05-09T03:12:31.400Z,99.90
2024-05-09T03:16:22.677Z,99.90
2024-05-09T03:21:50.212Z,99.90
2024-05-09T03:24:18.372Z,99.90
2024-05-09T03:26:52.971Z,99.90
2024-05-09T03:29:46.288Z,99.90
2024-05-09T03:39:04.779Z,99.90
2024-05-09T03:41:58.140Z,99.90
2024-05-09T03:52:05.696Z,99.90
2024-05-09T03:54:35.383Z,99.90
2024-05-09T03:57:38.070Z,99.90
2024-05-09T04:00:17.800Z,99.90
2024-05-09T04:04:11.807Z,99.90
2024-05-09T04:06:39.807Z,99.90
2024-05-09T04:10:20.674Z,99.90
2024-05-09T04:13:19.984Z,99.90
2024-05-09T04:16:17.554Z,99.90
2024-05-09T04:28:40.923Z,99.90
2024-05-09T04:31:37.108Z,99.90
2024-05-09T04:34:36.457Z,99.90
2024-05-09T04:48:35.993Z,99.90
2024-05-09T05:00:52.194Z,99.90
2024-05-09T05:07:02.117Z,99.90
2024-05-09T05:09:49.329Z,99.90
2024-05-09T05:12:54.602Z,99.90
2024-05-09T05:15:45.920Z,99.90
2024-05-09T05:18:32.305Z,99.90
2024-05-09T05:21:21.821Z,99.90
2024-05-09T05:24:08.044Z,99.90
2024-05-09T05:26:57.171Z,99.90
2024-05-09T05:29:43.431Z,99.90
2024-05-09T05:32:34.740Z,99.90
2024-05-09T05:35:20.839Z,99.90
2024-05-09T05:38:11.087Z,99.90
2024-05-09T05:40:57.802Z,99.90
2024-05-09T05:43:48.048Z,99.90
2024-05-09T05:46:34.403Z,99.90
2024-05-09T05:49:25.805Z,99.90
2024-05-09T05:52:12.862Z,99.90
2024-05-09T05:55:01.831Z,99.90
2024-05-09T05:57:47.878Z,99.90
2024-05-09T06:00:39.262Z,99.90
2024-05-09T06:03:26.818Z,99.90
2024-05-09T06:06:18.086Z,99.90
2024-05-09T06:09:04.524Z,99.90
2024-05-09T06:11:53.567Z,99.90
2024-05-09T06:14:41.139Z,99.90
2024-05-09T06:17:29.880Z,99.90
2024-05-09T06:20:20.786Z,99.90
2024-05-09T06:23:19.103Z,99.90
2024-05-09T06:26:05.701Z,99.90
2024-05-09T06:28:54.532Z,99.90
2024-05-09T06:31:41.214Z,99.90
2024-05-09T06:34:29.941Z,99.90
2024-05-09T06:37:19.056Z,99.90
2024-05-09T06:39:49.561Z,99.90
2024-05-09T06:42:19.993Z,99.90
2024-05-09T06:44:47.565Z,99.90
2024-05-09T06:47:17.853Z,99.90
2024-05-09T06:49:45.479Z,99.90
2024-05-09T06:52:15.762Z,99.90
2024-05-09T06:54:43.699Z,99.90
2024-05-09T06:57:16.501Z,99.90
2024-05-09T06:59:44.359Z,99.90
2024-05-09T07:02:14.648Z,99.90
2024-05-09T07:04:42.195Z,99.90
2024-05-09T07:07:12.374Z,99.90
2024-05-09T07:09:40.345Z,99.90
2024-05-09T07:12:11.190Z,99.90
2024-05-09T07:14:42.035Z,99.90
2024-05-09T07:17:12.123Z,99.90
2024-05-09T07:19:39.719Z,99.90
2024-05-09T07:22:09.829Z,99.90
2024-05-09T07:24:37.719Z,99.90
2024-05-09T07:27:08.533Z,99.90
2024-05-09T07:29:38.549Z,99.90
2024-05-09T07:32:11.593Z,99.90
2024-05-09T07:34:39.149Z,99.90
2024-05-09T07:37:12.802Z,99.90
2024-05-09T07:39:40.498Z,99.90
2024-05-09T07:42:10.758Z,99.90
2024-05-09T07:44:38.196Z,99.90
2024-05-09T07:48:27.526Z,99.90
2024-05-09T07:51:48.080Z,99.90
2024-05-09T07:53:35.266Z,99.90
2024-05-09T07:55:38.043Z,99.90
2024-05-09T07:58:09.034Z,99.90
2024-05-09T08:00:36.773Z,99.90
2024-05-09T08:03:09.759Z,99.90
2024-05-09T08:05:38.240Z,99.90
2024-05-09T08:08:09.381Z,99.90
2024-05-09T08:10:37.053Z,99.90
2024-05-09T08:13:07.541Z,99.90
2024-05-09T08:15:35.184Z,99.90
2024-05-09T08:18:05.396Z,99.90
2024-05-09T08:20:37.290Z,99.90
2024-05-09T08:23:07.769Z,99.90
2024-05-09T08:25:35.342Z,99.90
2024-05-09T08:28:07.335Z,99.90
2024-05-09T08:30:37.327Z,99.90
2024-05-09T08:33:09.017Z,99.90
2024-05-09T08:35:39.165Z,99.90
2024-05-09T08:38:09.852Z,99.90
2024-05-09T08:40:38.253Z,99.90
2024-05-09T08:43:12.730Z,99.90
2024-05-09T08:45:44.576Z,99.90
2024-05-09T08:48:16.918Z,99.90
2024-05-09T08:50:51.303Z,99.90
2024-05-09T08:53:21.720Z,99.90
2024-05-09T08:55:51.343Z,99.90
2024-05-09T08:58:21.972Z,99.90
2024-05-09T09:00:49.845Z,99.90
2024-05-09T09:03:21.440Z,99.90
2024-05-09T09:05:58.598Z,99.90
2024-05-09T09:08:29.241Z,99.90
2024-05-09T09:10:59.198Z,99.90
2024-05-09T09:13:29.271Z,99.90
2024-05-09T09:15:59.416Z,99.90
2024-05-09T09:18:31.497Z,99.90
2024-05-09T09:21:03.086Z,99.90
2024-05-09T09:23:33.570Z,99.90
2024-05-09T09:26:01.591Z,99.60
2024-05-09T09:28:32.324Z,99.50
2024-05-09T09:31:03.539Z,99.40
2024-05-09T09:33:36.164Z,99.30
2024-05-09T09:36:08.968Z,99.90
2024-05-09T09:38:40.552Z,99.70
2024-05-09T09:41:10.833Z,99.90
2024-05-09T09:43:42.268Z,99.80
2024-05-09T09:46:12.585Z,99.20
2024-05-09T09:48:44.602Z,99.90
2024-05-09T09:51:16.020Z,99.80
2024-05-09T09:53:47.728Z,99.00
2024-05-09T09:56:18.151Z,98.50
2024-05-09T09:58:49.405Z,98.90
2024-05-09T10:01:16.893Z,99.40
2024-05-09T10:03:47.814Z,98.90
2024-05-09T10:06:19.031Z,99.10
2024-05-09T10:08:50.435Z,99.10
2024-05-09T10:11:20.554Z,98.30
2024-05-09T10:13:51.112Z,98.60
2024-05-09T10:16:22.333Z,98.70
2024-05-09T10:18:52.710Z,98.40
2024-05-09T10:21:23.448Z,97.30
2024-05-09T10:24:00.721Z,97.10
2024-05-09T10:26:33.023Z,96.30
2024-05-09T10:29:03.562Z,97.30
2024-05-09T10:31:31.167Z,97.60
2024-05-09T10:34:03.608Z,96.80
2024-05-09T10:36:34.238Z,96.80
2024-05-09T10:39:05.480Z,95.30
2024-05-09T10:41:33.849Z,95.40
2024-05-09T10:44:04.426Z,95.30
2024-05-09T10:46:32.214Z,95.50
2024-05-09T10:49:06.229Z,95.80
2024-05-09T10:51:37.992Z,94.80
2024-05-09T10:54:08.057Z,95.00
2024-05-09T10:56:35.573Z,94.10
2024-05-09T10:59:06.515Z,94.10
2024-05-09T11:01:34.319Z,93.60
2024-05-09T11:04:04.640Z,94.30
2024-05-09T11:06:35.062Z,94.20
2024-05-09T11:09:08.843Z,94.20
2024-05-09T11:11:36.639Z,93.50
2024-05-09T11:14:15.188Z,93.80
2024-05-09T11:16:42.575Z,93.40
2024-05-09T11:19:18.600Z,92.60
2024-05-09T11:21:51.458Z,93.90
2024-05-09T11:24:25.164Z,93.90
2024-05-09T11:26:52.609Z,93.80
2024-05-09T11:29:22.758Z,94.40
2024-05-09T11:31:50.341Z,94.10
2024-05-09T11:34:20.771Z,93.30
2024-05-09T11:36:48.467Z,93.00
2024-05-09T11:39:18.836Z,92.90
2024-05-09T11:41:48.983Z,92.70
2024-05-09T11:44:19.082Z,92.90
2024-05-09T11:46:47.175Z,93.80
2024-05-09T11:49:17.573Z,94.00
2024-05-09T11:51:45.156Z,93.90
2024-05-09T11:54:16.861Z,93.60
2024-05-09T11:56:44.358Z,94.10
2024-05-09T11:59:17.545Z,93.10
2024-05-09T12:01:45.104Z,92.90
2024-05-09T12:04:15.534Z,93.80
2024-05-09T12:06:43.113Z,93.30
2024-05-09T12:09:13.280Z,93.80
2024-05-09T12:11:41.252Z,92.80
2024-05-09T12:14:11.391Z,92.60
2024-05-09T12:16:41.663Z,93.20
2024-05-09T12:19:11.823Z,92.20
2024-05-09T12:21:39.381Z,94.20
2024-05-09T12:24:09.937Z,93.00
2024-05-09T12:26:37.429Z,92.20
2024-05-09T12:29:07.736Z,92.20
2024-05-09T12:31:35.258Z,92.80
2024-05-09T12:34:08.080Z,94.20
2024-05-09T12:36:35.764Z,94.30
2024-05-09T12:39:06.489Z,93.30
2024-05-09T12:41:34.351Z,92.50
2024-05-09T12:44:04.413Z,92.40
2024-05-09T12:46:32.157Z,92.80
2024-05-09T12:49:02.253Z,92.60
2024-05-09T12:51:32.960Z,93.20
2024-05-09T12:54:03.375Z,92.50
2024-05-09T12:56:31.232Z,92.40
2024-05-09T12:59:01.758Z,92.20
2024-05-09T13:01:29.945Z,92.20
2024-05-09T13:04:00.783Z,92.40
2024-05-09T13:06:28.795Z,92.80
2024-05-09T13:09:01.858Z,92.10
2024-05-09T13:11:29.447Z,92.70
2024-05-09T13:13:59.577Z,92.00
2024-05-09T13:16:27.100Z,92.40
2024-05-09T13:18:54.752Z,91.80
2024-05-09T13:21:24.827Z,91.80
2024-05-09T13:23:52.620Z,92.00
2024-05-09T13:26:25.392Z,91.70
2024-05-09T13:28:52.808Z,92.40
2024-05-09T13:31:23.119Z,91.90
2024-05-09T13:33:50.793Z,91.90
2024-05-09T13:36:21.241Z,91.20
2024-05-09T13:38:48.871Z,91.50
2024-05-09T13:41:18.934Z,92.70
2024-05-09T13:43:48.941Z,92.10
2024-05-09T13:46:19.135Z,91.80
2024-05-09T13:48:46.882Z,92.10
2024-05-09T13:51:17.758Z,91.90
2024-05-09T13:53:45.143Z,91.10
2024-05-09T13:56:15.318Z,91.60
2024-05-09T13:58:42.825Z,92.60
2024-05-09T14:01:17.443Z,91.80
2024-05-09T14:03:45.041Z,91.50
2024-05-09T14:06:16.145Z,91.10
2024-05-09T14:08:43.969Z,91.40
2024-05-09T14:11:15.650Z,91.40
2024-05-09T14:13:43.426Z,91.00
2024-05-09T14:16:16.331Z,90.70
2024-05-09T14:18:43.945Z,91.90
2024-05-09T14:21:14.051Z,91.60
2024-05-09T14:23:44.273Z,92.10
2024-05-09T14:26:11.943Z,91.50
2024-05-09T14:28:43.283Z,91.60
2024-05-09T14:31:16.738Z,91.50
2024-05-09T14:33:44.507Z,91.60
2024-05-09T14:36:15.588Z,90.10
2024-05-09T14:38:43.070Z,90.60
2024-05-09T14:41:13.496Z,88.80
2024-05-09T14:43:41.067Z,90.00
2024-05-09T14:46:11.224Z,89.90
2024-05-09T14:48:42.574Z,88.90
2024-05-09T14:51:12.608Z,88.60
2024-05-09T14:53:43.188Z,87.30
2024-05-09T14:56:14.526Z,86.50
2024-05-09T14:58:42.130Z,87.50
2024-05-09T15:01:12.266Z,89.20
2024-05-09T15:03:42.536Z,87.70
2024-05-09T15:06:13.062Z,85.80
2024-05-09T15:08:41.918Z,88.20
2024-05-09T15:11:12.309Z,87.80
2024-05-09T15:13:39.855Z,87.80
2024-05-09T15:16:10.701Z,87.30
2024-05-09T15:18:44.060Z,87.90
2024-05-09T15:21:14.303Z,90.00
2024-05-09T15:23:41.914Z,90.20
2024-05-09T15:26:12.059Z,90.20
2024-05-09T15:28:41.056Z,89.90
2024-05-09T15:31:11.201Z,87.80
2024-05-09T15:33:42.980Z,89.40
2024-05-09T15:36:13.413Z,88.90
2024-05-09T15:38:40.976Z,89.80
2024-05-09T15:41:11.106Z,89.70
2024-05-09T15:43:38.756Z,89.80
2024-05-09T15:46:09.327Z,90.40
2024-05-09T15:48:37.813Z,88.50
2024-05-09T15:51:11.670Z,88.70
2024-05-09T15:53:39.151Z,90.00
2024-05-09T15:56:10.959Z,88.80
2024-05-09T15:58:38.478Z,88.90
2024-05-09T16:01:08.815Z,89.40
2024-05-09T16:03:36.533Z,88.20
2024-05-09T16:06:11.219Z,86.80
2024-05-09T16:08:39.489Z,88.00
2024-05-09T16:11:10.332Z,87.20
2024-05-09T16:13:37.846Z,87.30
2024-05-09T16:16:09.081Z,88.80
2024-05-09T16:18:36.654Z,89.30
2024-05-09T16:21:06.949Z,88.20
2024-05-09T16:23:39.868Z,90.50
2024-05-09T16:26:10.795Z,89.00
2024-05-09T16:28:38.218Z,90.10
2024-05-09T16:31:08.720Z,89.20
2024-05-09T16:33:37.110Z,88.70
2024-05-09T16:36:07.909Z,87.80
2024-05-09T16:38:40.170Z,89.30
2024-05-09T16:41:10.291Z,88.00
2024-05-09T16:43:37.750Z,87.00
2024-05-09T16:46:09.114Z,87.90
2024-05-09T16:48:37.284Z,90.00
2024-05-09T16:51:07.476Z,88.40
2024-05-09T16:53:38.454Z,90.00
2024-05-09T16:56:09.637Z,90.50
2024-05-09T16:58:37.693Z,89.90
2024-05-09T17:01:08.116Z,90.20
2024-05-09T17:03:37.150Z,90.00
2024-05-09T17:06:08.537Z,90.30
2024-05-09T17:08:40.539Z,90.00
2024-05-09T17:11:11.523Z,90.40
2024-05-09T17:13:45.210Z,90.10
2024-05-09T17:16:18.278Z,90.30
2024-05-09T17:18:49.826Z,90.80
2024-05-09T17:21:17.464Z,90.10
2024-05-09T17:23:54.307Z,90.50
2024-05-09T17:26:24.670Z,91.10
2024-05-09T17:28:52.339Z,91.00
2024-05-09T17:31:22.536Z,90.80
2024-05-09T17:33:50.191Z,90.40
2024-05-09T17:36:20.720Z,90.50
2024-05-09T17:38:50.894Z,90.50
2024-05-09T17:41:21.382Z,90.60
2024-05-09T17:43:48.785Z,90.70
2024-05-09T17:46:18.921Z,90.60
2024-05-09T17:48:46.498Z,91.10
2024-05-09T17:51:16.702Z,90.80
2024-05-09T17:53:44.163Z,91.00
2024-05-09T17:56:17.892Z,91.50
2024-05-09T17:58:46.764Z,92.00
2024-05-09T18:01:16.844Z,91.80
2024-05-09T18:03:44.639Z,91.70
2024-05-09T18:06:14.728Z,91.60
2024-05-09T18:08:42.370Z,91.80
2024-05-09T18:11:12.352Z,92.00
2024-05-09T18:13:42.619Z,92.00
2024-05-09T18:16:12.782Z,92.10
2024-05-09T18:18:41.222Z,91.90
2024-05-09T18:21:11.454Z,92.20
2024-05-09T18:23:38.999Z,91.70
2024-05-09T18:26:09.630Z,92.00
2024-05-09T18:28:37.239Z,91.90
2024-05-09T18:31:10.243Z,91.70
2024-05-09T18:33:38.054Z,91.70
2024-05-09T18:36:10.468Z,91.70
2024-05-09T18:38:39.102Z,91.70
2024-05-09T18:41:09.300Z,91.80
2024-05-09T18:43:42.308Z,92.40
2024-05-09T18:46:18.528Z,92.40
2024-05-09T18:48:46.228Z,92.50
2024-05-09T18:51:16.466Z,92.40
2024-05-09T18:53:45.080Z,92.60
2024-05-09T18:56:15.478Z,92.90
2024-05-09T18:58:43.017Z,93.10
2024-05-09T19:01:14.115Z,93.30
2024-05-09T19:03:44.687Z,93.40
2024-05-09T19:06:15.053Z,93.50
2024-05-09T19:08:42.567Z,93.50
2024-05-09T19:11:12.787Z,93.70
2024-05-09T19:13:40.767Z,93.70
2024-05-09T19:16:11.235Z,93.80
2024-05-09T19:18:38.932Z,93.90
2024-05-09T19:21:14.280Z,94.10
2024-05-09T19:23:47.160Z,94.00
2024-05-09T19:26:22.203Z,94.10
2024-05-09T19:28:49.660Z,94.30
2024-05-09T19:31:19.919Z,94.30
2024-05-09T19:33:47.521Z,94.20
2024-05-09T19:36:21.253Z,94.30
2024-05-09T19:38:51.382Z,94.60
2024-05-09T19:41:21.557Z,94.80
2024-05-09T19:43:48.976Z,95.10
2024-05-09T19:46:20.435Z,95.60
2024-05-09T19:48:48.359Z,96.10
2024-05-09T19:51:21.382Z,96.70
2024-05-09T19:53:50.696Z,96.90
2024-05-09T19:56:21.234Z,97.00
2024-05-09T19:58:49.023Z,97.20
2024-05-09T20:01:21.474Z,97.40
2024-05-09T20:03:50.906Z,97.20
2024-05-09T20:06:26.402Z,96.80
2024-05-09T20:08:58.540Z,97.00
2024-05-09T20:11:33.267Z,97.20
2024-05-09T20:14:01.345Z,97.40
2024-05-09T20:16:33.329Z,97.70
2024-05-09T20:19:01.337Z,97.80
2024-05-09T20:21:34.488Z,97.90
2024-05-09T20:24:02.195Z,98.00
2024-05-09T20:26:32.327Z,98.20
2024-05-09T20:28:59.730Z,98.60
2024-05-09T20:31:30.252Z,98.60
2024-05-09T20:33:57.787Z,98.80
2024-05-09T20:36:27.834Z,99.20
2024-05-09T20:38:58.005Z,99.90
2024-05-09T20:41:28.113Z,99.90
2024-05-09T20:43:58.268Z,99.90
2024-05-09T20:46:30.721Z,99.90
2024-05-09T20:48:58.323Z,99.90
2024-05-09T20:51:30.217Z,99.90
2024-05-09T20:54:00.521Z,99.90
2024-05-09T20:56:30.707Z,99.90
2024-05-09T20:58:58.311Z,99.90
2024-05-09T21:01:28.482Z,99.90
2024-05-09T21:03:56.215Z,99.90
2024-05-09T21:06:26.443Z,99.90
2024-05-09T21:08:53.851Z,99.90
2024-05-09T21:11:26.632Z,99.90
2024-05-09T21:13:54.256Z,99.90
2024-05-09T21:16:25.268Z,99.90
2024-05-09T21:18:52.747Z,99.90
2024-05-09T21:21:23.208Z,99.90
2024-05-09T21:23:50.579Z,99.90
2024-05-09T21:26:23.495Z,99.90
2024-05-09T21:28:53.503Z,99.90
2024-05-09T21:31:23.638Z,99.90
2024-05-09T21:33:51.043Z,99.90
2024-05-09T21:36:21.363Z,99.90
2024-05-09T21:38:48.853Z,99.90
2024-05-09T21:41:19.258Z,99.90
2024-05-09T21:43:46.583Z,99.90
2024-05-09T21:46:20.061Z,99.90
2024-05-09T21:48:47.620Z,99.90
2024-05-09T21:51:17.602Z,99.90
2024-05-09T21:53:45.057Z,99.90
2024-05-09T21:56:15.016Z,99.90
2024-05-09T21:58:42.527Z,99.90
2024-05-09T22:01:12.988Z,99.90
2024-05-09T22:03:43.408Z,99.90
2024-05-09T22:06:13.649Z,99.90
2024-05-09T22:08:41.096Z,99.90
2024-05-09T22:11:11.438Z,99.90
2024-05-09T22:13:39.027Z,99.90
2024-05-09T22:16:10.787Z,99.90
2024-05-09T22:18:38.368Z,99.90
2024-05-09T22:21:11.100Z,99.90
2024-05-09T22:23:38.546Z,99.90
2024-05-09T22:26:09.125Z,99.90
2024-05-09T22:28:36.470Z,99.90
2024-05-09T22:31:06.569Z,99.90
2024-05-09T22:33:34.340Z,99.90
2024-05-09T22:36:04.647Z,99.90
2024-05-09T22:38:34.921Z,99.90
2024-05-09T22:41:08.464Z,99.90
2024-05-09T22:43:36.153Z,99.90
2024-05-09T22:46:06.633Z,99.90
2024-05-09T22:48:34.489Z,99.90
2024-05-09T22:51:04.935Z,99.90
2024-05-09T22:53:35.221Z,99.90
2024-05-09T22:56:05.457Z,99.90
2024-05-09T22:58:32.975Z,99.90
2024-05-09T23:01:03.389Z,99.90
2024-05-09T23:03:32.263Z,99.90
2024-05-09T23:06:02.476Z,99.90
2024-05-09T23:08:30.025Z,99.90
2024-05-09T23:11:03.475Z,99.90
2024-05-09T23:13:30.979Z,99.90
2024-05-09T23:16:01.250Z,99.90
2024-05-09T23:18:29.231Z,99.90
2024-05-09T23:20:59.412Z,99.90
2024-05-09T23:23:27.437Z,99.90
2024-05-09T23:25:57.557Z,99.90
2024-05-09T23:28:27.701Z,99.90
2024-05-09T23:30:59.117Z,99.90
2024-05-09T23:33:26.808Z,99.90
2024-05-09T23:35:57.053Z,99.90
2024-05-09T23:38:24.960Z,99.90
2024-05-09T23:40:55.215Z,99.90
2024-05-09T23:43:22.754Z,99.90
2024-05-09T23:45:55.685Z,99.90
2024-05-09T23:48:23.352Z,99.90
2024-05-09T23:50:53.394Z,99.90
2024-05-09T23:53:20.849Z,99.90
2024-05-09T23:55:50.933Z,99.90
2024-05-09T23:58:18.425Z,99.90
